createdAt,value
2018-08-17T00:00:04.947Z,0.00
2018-08-17T00:01:04.873Z,0.00
2018-08-17T00:02:04.797Z,0.00
2018-08-17T00:03:04.709Z,0.00
2018-08-17T00:04:04.635Z,0.00
2018-08-17T00:05:04.560Z,0.00
2018-08-17T00:06:04.498Z,0.00
2018-08-17T00:07:04.398Z,0.00
2018-08-17T00:08:04.326Z,0.00
2018-08-17T00:09:04.248Z,0.00
2018-08-17T00:10:04.174Z,0.00
2018-08-17T00:11:04.097Z,0.00
2018-08-17T00:12:04.011Z,0.00
2018-08-17T00:13:03.937Z,0.00
2018-08-17T00:14:03.860Z,0.00
2018-08-17T00:15:03.785Z,0.00
2018-08-17T00:16:03.699Z,0.00
2018-08-17T00:17:03.625Z,0.00
2018-08-17T00:18:03.550Z,0.00
2018-08-17T00:19:03.477Z,0.00
2018-08-17T00:20:03.386Z,0.00
2018-08-17T00:21:03.312Z,0.00
2018-08-17T00:22:03.236Z,0.00
2018-08-17T00:23:03.162Z,0.00
2018-08-17T00:24:03.075Z,0.00
2018-08-17T00:25:03.001Z,0.00
2018-08-17T00:26:02.931Z,0.00
2018-08-17T00:27:02.850Z,0.00
2018-08-17T00:28:02.762Z,0.00
2018-08-17T00:29:02.700Z,0.00
2018-08-17T00:30:02.613Z,0.00
2018-08-17T00:31:02.540Z,0.00
2018-08-17T00:32:02.452Z,0.00
2018-08-17T00:33:02.377Z,0.00
2018-08-17T00:34:02.301Z,0.00
2018-08-17T00:35:02.225Z,0.00
2018-08-17T00:36:02.140Z,0.00
2018-08-17T00:37:02.063Z,0.00
2018-08-17T00:38:01.988Z,0.00
2018-08-17T00:39:01.913Z,0.00
2018-08-17T00:40:01.827Z,0.00
2018-08-17T00:41:01.752Z,0.00
2018-08-17T00:42:01.677Z,0.00
2018-08-17T00:43:01.602Z,0.00
2018-08-17T00:44:01.527Z,0.00
2018-08-17T00:45:01.439Z,0.00
2018-08-17T00:46:01.365Z,0.00
2018-08-17T00:47:01.289Z,0.00
2018-08-17T00:48:01.210Z,0.00
2018-08-17T00:49:01.127Z,0.00
2018-08-17T00:50:01.052Z,0.00
2018-08-17T00:51:00.966Z,0.00
2018-08-17T00:52:00.890Z,0.00
2018-08-17T00:53:00.818Z,0.00
2018-08-17T00:54:00.742Z,0.00
2018-08-17T00:55:00.656Z,0.00
2018-08-17T00:56:00.578Z,0.00
2018-08-17T00:57:00.503Z,0.00
2018-08-17T00:58:00.428Z,0.00
2018-08-17T00:59:00.340Z,0.00
2018-08-17T01:00:00.279Z,0.00
2018-08-17T01:01:00.192Z,0.00
2018-08-17T01:02:00.115Z,0.00
2018-08-17T01:03:00.029Z,0.00
2018-08-17T01:03:59.955Z,0.00
2018-08-17T01:04:59.879Z,0.00
2018-08-17T01:05:59.791Z,0.00
2018-08-17T01:06:59.719Z,0.00
2018-08-17T01:07:59.641Z,0.00
2018-08-17T01:08:59.567Z,0.00
2018-08-17T01:09:59.479Z,0.00
2018-08-17T01:10:59.404Z,0.00
2018-08-17T01:11:59.333Z,0.00
2018-08-17T01:12:59.243Z,0.00
2018-08-17T01:13:59.167Z,0.00
2018-08-17T01:14:59.106Z,0.00
2018-08-17T01:15:59.018Z,0.00
2018-08-17T01:16:58.930Z,0.00
2018-08-17T01:17:58.855Z,0.00
2018-08-17T01:18:58.781Z,0.00
2018-08-17T01:19:58.706Z,0.00
2018-08-17T01:20:58.618Z,0.00
2018-08-17T01:21:58.542Z,0.00
2018-08-17T01:22:58.469Z,0.00
2018-08-17T01:23:58.381Z,0.00
2018-08-17T01:24:58.306Z,0.00
2018-08-17T01:25:58.231Z,0.00
2018-08-17T01:26:58.144Z,0.00
2018-08-17T01:27:58.069Z,0.00
2018-08-17T01:28:58.010Z,0.00
2018-08-17T01:29:57.919Z,0.00
2018-08-17T01:30:57.835Z,0.00
2018-08-17T01:31:57.757Z,0.00
2018-08-17T01:32:57.682Z,0.00
2018-08-17T01:33:57.606Z,0.00
2018-08-17T01:34:57.519Z,0.00
2018-08-17T01:35:57.443Z,0.00
2018-08-17T01:36:57.357Z,0.00
2018-08-17T01:37:57.282Z,0.00
2018-08-17T01:38:57.209Z,0.00
2018-08-17T01:39:57.132Z,0.00
2018-08-17T01:40:57.058Z,0.00
2018-08-17T01:41:56.976Z,0.00
2018-08-17T01:42:56.896Z,0.00
2018-08-17T01:43:56.809Z,0.00
2018-08-17T01:44:56.734Z,0.00
2018-08-17T01:45:56.658Z,0.00
2018-08-17T01:46:56.573Z,0.00
2018-08-17T01:47:56.497Z,0.00
2018-08-17T01:48:56.420Z,0.00
2018-08-17T01:49:56.358Z,0.00
2018-08-17T01:50:56.259Z,0.00
2018-08-17T01:51:56.184Z,0.00
2018-08-17T01:52:56.109Z,0.00
2018-08-17T01:53:56.044Z,0.00
2018-08-17T01:54:55.947Z,0.00
2018-08-17T01:55:55.871Z,0.00
2018-08-17T01:56:55.784Z,0.00
2018-08-17T01:57:55.710Z,0.00
2018-08-17T01:58:55.634Z,0.00
2018-08-17T01:59:55.559Z,0.00
2018-08-17T02:00:55.472Z,0.00
2018-08-17T02:01:55.396Z,0.00
2018-08-17T02:02:55.324Z,0.00
2018-08-17T02:03:55.246Z,0.00
2018-08-17T02:04:55.160Z,0.00
2018-08-17T02:05:55.089Z,0.00
2018-08-17T02:06:54.997Z,0.00
2018-08-17T02:07:54.923Z,0.00
2018-08-17T02:08:54.848Z,0.00
2018-08-17T02:09:54.761Z,0.00
2018-08-17T02:10:54.686Z,0.00
2018-08-17T02:11:54.611Z,0.00
2018-08-17T02:12:54.538Z,0.00
2018-08-17T02:13:54.447Z,0.00
2018-08-17T02:14:54.374Z,0.00
2018-08-17T02:15:54.298Z,0.00
2018-08-17T02:16:54.212Z,0.00
2018-08-17T02:17:54.139Z,0.00
2018-08-17T02:18:54.066Z,0.00
2018-08-17T02:19:53.975Z,0.00
2018-08-17T02:20:53.898Z,0.00
2018-08-17T02:21:53.837Z,0.00
2018-08-17T02:22:53.748Z,0.00
2018-08-17T02:23:53.663Z,0.00
2018-08-17T02:24:53.588Z,0.00
2018-08-17T02:25:53.513Z,0.00
2018-08-17T02:26:53.424Z,0.00
2018-08-17T02:27:53.349Z,0.00
2018-08-17T02:28:53.275Z,0.00
2018-08-17T02:29:53.188Z,0.00
2018-08-17T02:30:53.117Z,0.00
2018-08-17T02:31:53.038Z,0.00
2018-08-17T02:32:52.963Z,0.00
2018-08-17T02:33:52.874Z,0.00
2018-08-17T02:34:52.801Z,0.00
2018-08-17T02:35:52.725Z,0.00
2018-08-17T02:36:52.641Z,0.00
2018-08-17T02:37:52.565Z,0.00
2018-08-17T02:38:52.489Z,0.00
2018-08-17T02:39:52.401Z,0.00
2018-08-17T02:40:52.331Z,0.00
2018-08-17T02:41:52.251Z,0.00
2018-08-17T02:42:52.165Z,0.00
2018-08-17T02:43:52.089Z,0.00
2018-08-17T02:44:52.015Z,0.00
2018-08-17T02:45:51.926Z,0.00
2018-08-17T02:46:51.851Z,0.00
2018-08-17T02:47:51.777Z,0.00
2018-08-17T02:48:51.691Z,0.00
2018-08-17T02:49:51.617Z,0.00
2018-08-17T02:50:51.547Z,0.00
2018-08-17T02:51:51.453Z,0.00
2018-08-17T02:52:51.377Z,0.00
2018-08-17T02:53:51.303Z,0.00
2018-08-17T02:54:51.227Z,0.00
2018-08-17T02:55:51.141Z,0.00
2018-08-17T02:56:51.067Z,0.00
2018-08-17T02:57:50.979Z,0.00
2018-08-17T02:58:50.902Z,0.00
2018-08-17T02:59:50.828Z,0.00
2018-08-17T03:00:50.752Z,0.00
2018-08-17T03:01:50.667Z,0.00
2018-08-17T03:02:50.591Z,0.00
2018-08-17T03:03:50.516Z,0.00
2018-08-17T03:04:50.444Z,0.00
2018-08-17T03:05:50.353Z,0.00
2018-08-17T03:06:50.279Z,0.00
2018-08-17T03:07:50.191Z,0.00
2018-08-17T03:08:50.117Z,0.00
2018-08-17T03:09:50.042Z,0.00
2018-08-17T03:10:49.954Z,0.00
2018-08-17T03:11:49.879Z,0.00
2018-08-17T03:12:49.804Z,0.00
2018-08-17T03:13:49.718Z,0.00
2018-08-17T03:14:49.643Z,0.00
2018-08-17T03:15:49.568Z,0.00
2018-08-17T03:16:49.480Z,0.00
2018-08-17T03:17:49.405Z,0.00
2018-08-17T03:18:49.331Z,0.00
2018-08-17T03:19:49.244Z,0.00
2018-08-17T03:20:49.169Z,0.00
2018-08-17T03:21:49.095Z,0.00
2018-08-17T03:22:49.007Z,4.00
2018-08-17T03:23:48.931Z,4.00
2018-08-17T03:24:48.855Z,4.00
2018-08-17T03:25:48.771Z,4.00
2018-08-17T03:26:48.699Z,4.00
2018-08-17T03:27:48.621Z,4.00
2018-08-17T03:28:48.535Z,4.00
2018-08-17T03:29:48.456Z,8.00
2018-08-17T03:30:48.395Z,8.00
2018-08-17T03:31:48.306Z,8.00
2018-08-17T03:32:48.222Z,8.00
2018-08-17T03:33:48.144Z,12.00
2018-08-17T03:34:48.058Z,12.00
2018-08-17T03:35:47.983Z,16.00
2018-08-17T03:36:47.907Z,16.00
2018-08-17T03:37:47.832Z,20.00
2018-08-17T03:38:47.745Z,20.00
2018-08-17T03:39:47.671Z,28.00
2018-08-17T03:40:47.583Z,32.00
2018-08-17T03:41:47.508Z,32.00
2018-08-17T03:42:47.432Z,40.00
2018-08-17T03:43:47.359Z,40.00
2018-08-17T03:44:47.271Z,44.00
2018-08-17T03:45:47.195Z,48.00
2018-08-17T03:46:47.121Z,56.00
2018-08-17T03:47:47.039Z,64.00
2018-08-17T03:48:46.962Z,68.00
2018-08-17T03:49:46.883Z,76.00
2018-08-17T03:50:46.796Z,84.00
2018-08-17T03:51:46.723Z,92.00
2018-08-17T03:52:46.635Z,104.00
2018-08-17T03:53:46.559Z,112.00
2018-08-17T03:54:46.484Z,120.00
2018-08-17T03:55:46.409Z,128.00
2018-08-17T03:56:46.323Z,140.00
2018-08-17T03:57:46.249Z,152.00
2018-08-17T03:58:46.172Z,164.00
2018-08-17T03:59:46.084Z,176.00
2018-08-17T04:00:46.009Z,192.00
2018-08-17T04:01:45.923Z,208.00
2018-08-17T04:02:45.848Z,224.00
2018-08-17T04:03:45.772Z,240.00
2018-08-17T04:04:45.685Z,256.00
2018-08-17T04:05:45.611Z,276.00
2018-08-17T04:06:45.535Z,300.00
2018-08-17T04:07:45.456Z,320.00
2018-08-17T04:08:45.373Z,340.00
2018-08-17T04:09:45.298Z,368.00
2018-08-17T04:10:45.211Z,388.00
2018-08-17T04:11:45.136Z,416.00
2018-08-17T04:12:45.061Z,440.00
2018-08-17T04:13:44.975Z,464.00
2018-08-17T04:14:44.900Z,492.00
2018-08-17T04:15:44.824Z,516.00
2018-08-17T04:16:44.736Z,540.00
2018-08-17T04:17:44.661Z,568.00
2018-08-17T04:18:44.589Z,592.00
2018-08-17T04:19:44.503Z,616.00
2018-08-17T04:20:44.425Z,640.00
2018-08-17T04:21:44.351Z,664.00
2018-08-17T04:22:44.262Z,696.00
2018-08-17T04:23:44.241Z,728.00
2018-08-17T04:24:44.112Z,756.00
2018-08-17T04:25:44.026Z,784.00
2018-08-17T04:26:43.952Z,808.00
2018-08-17T04:27:43.883Z,824.00
2018-08-17T04:28:43.788Z,844.00
2018-08-17T04:29:43.715Z,864.00
2018-08-17T04:30:43.651Z,884.00
2018-08-17T04:31:43.552Z,896.00
2018-08-17T04:32:43.482Z,908.00
2018-08-17T04:33:43.402Z,928.00
2018-08-17T04:34:43.313Z,940.00
2018-08-17T04:35:43.242Z,956.00
2018-08-17T04:36:43.163Z,980.00
2018-08-17T04:37:43.081Z,1000.00
2018-08-17T04:38:43.003Z,1020.00
2018-08-17T04:39:42.927Z,1044.00
2018-08-17T04:40:42.839Z,1080.00
2018-08-17T04:41:42.777Z,1120.00
2018-08-17T04:42:42.690Z,1144.00
2018-08-17T04:43:42.615Z,1164.00
2018-08-17T04:44:42.528Z,1168.00
2018-08-17T04:45:42.453Z,1176.00
2018-08-17T04:46:42.379Z,1188.00
2018-08-17T04:47:42.290Z,1212.00
2018-08-17T04:48:42.214Z,1228.00
2018-08-17T04:49:42.131Z,1248.00
2018-08-17T04:50:42.055Z,1268.00
2018-08-17T04:51:41.979Z,1292.00
2018-08-17T04:52:41.891Z,1312.00
2018-08-17T04:53:41.815Z,1332.00
2018-08-17T04:54:41.741Z,1352.00
2018-08-17T04:55:41.665Z,1368.00
2018-08-17T04:56:41.578Z,1380.00
2018-08-17T04:57:41.509Z,1392.00
2018-08-17T04:58:41.429Z,1408.00
2018-08-17T04:59:41.341Z,1420.00
2018-08-17T05:00:41.267Z,1428.00
2018-08-17T05:01:41.191Z,1448.00
2018-08-17T05:02:41.106Z,1456.00
2018-08-17T05:03:41.032Z,1480.00
2018-08-17T05:04:40.955Z,1496.00
2018-08-17T05:05:40.867Z,1512.00
2018-08-17T05:06:40.791Z,1532.00
2018-08-17T05:07:40.717Z,1552.00
2018-08-17T05:08:40.630Z,1568.00
2018-08-17T05:09:40.555Z,1588.00
2018-08-17T05:10:40.480Z,1604.00
2018-08-17T05:11:40.405Z,1620.00
2018-08-17T05:12:40.317Z,1636.00
2018-08-17T05:13:40.243Z,1656.00
2018-08-17T05:14:40.168Z,1664.00
2018-08-17T05:15:40.081Z,1680.00
2018-08-17T05:16:40.006Z,1712.00
2018-08-17T05:17:39.932Z,1728.00
2018-08-17T05:18:39.846Z,1744.00
2018-08-17T05:19:39.769Z,1756.00
2018-08-17T05:20:39.695Z,1772.00
2018-08-17T05:21:39.649Z,1788.00
2018-08-17T05:22:39.532Z,1800.00
2018-08-17T05:23:39.457Z,1812.00
2018-08-17T05:24:39.382Z,1828.00
2018-08-17T05:25:39.294Z,1848.00
2018-08-17T05:26:39.219Z,1872.00
2018-08-17T05:27:39.144Z,1904.00
2018-08-17T05:28:39.061Z,1936.00
2018-08-17T05:29:38.983Z,1976.00
2018-08-17T05:30:38.908Z,2032.00
2018-08-17T05:31:38.833Z,2076.00
2018-08-17T05:32:38.768Z,2112.00
2018-08-17T05:33:38.670Z,2152.00
2018-08-17T05:34:38.595Z,2188.00
2018-08-17T05:35:38.520Z,2296.00
2018-08-17T05:36:38.435Z,2376.00
2018-08-17T05:37:38.358Z,2256.00
2018-08-17T05:38:38.284Z,2184.00
2018-08-17T05:39:38.195Z,2176.00
2018-08-17T05:40:38.120Z,2180.00
2018-08-17T05:41:38.045Z,2184.00
2018-08-17T05:42:37.959Z,2164.00
2018-08-17T05:43:37.888Z,2160.00
2018-08-17T05:44:37.821Z,2172.00
2018-08-17T05:45:37.738Z,2164.00
2018-08-17T05:46:37.647Z,2172.00
2018-08-17T05:47:37.572Z,2180.00
2018-08-17T05:48:37.509Z,2200.00
2018-08-17T05:49:37.421Z,2220.00
2018-08-17T05:50:37.338Z,2236.00
2018-08-17T05:51:37.260Z,2244.00
2018-08-17T05:52:37.188Z,2264.00
2018-08-17T05:53:37.099Z,2288.00
2018-08-17T05:54:37.023Z,2304.00
2018-08-17T05:55:36.948Z,2320.00
2018-08-17T05:56:36.894Z,2324.00
2018-08-17T05:57:36.798Z,2332.00
2018-08-17T05:58:36.714Z,2352.00
2018-08-17T05:59:36.637Z,2372.00
2018-08-17T06:00:36.561Z,2384.00
2018-08-17T06:01:36.475Z,2424.00
2018-08-17T06:02:36.398Z,2452.00
2018-08-17T06:03:36.323Z,2480.00
2018-08-17T06:04:36.251Z,2508.00
2018-08-17T06:05:36.162Z,2536.00
2018-08-17T06:06:36.088Z,2544.00
2018-08-17T06:07:36.013Z,2540.00
2018-08-17T06:08:35.937Z,2532.00
2018-08-17T06:09:35.850Z,2524.00
2018-08-17T06:10:35.774Z,2532.00
2018-08-17T06:11:35.721Z,2520.00
2018-08-17T06:12:35.624Z,2504.00
2018-08-17T06:13:35.539Z,2504.00
2018-08-17T06:14:35.463Z,2488.00
2018-08-17T06:15:35.388Z,2444.00
2018-08-17T06:16:35.313Z,2444.00
2018-08-17T06:17:35.238Z,2488.00
2018-08-17T06:18:35.151Z,2544.00
2018-08-17T06:19:35.077Z,2588.00
2018-08-17T06:20:35.000Z,2640.00
2018-08-17T06:21:34.925Z,2628.00
2018-08-17T06:22:34.838Z,2640.00
2018-08-17T06:23:34.764Z,2664.00
2018-08-17T06:24:34.690Z,2688.00
2018-08-17T06:25:34.614Z,2696.00
2018-08-17T06:26:34.528Z,2720.00
2018-08-17T06:27:34.451Z,2732.00
2018-08-17T06:28:34.379Z,2744.00
2018-08-17T06:29:34.301Z,2760.00
2018-08-17T06:30:34.225Z,2780.00
2018-08-17T06:31:34.166Z,2800.00
2018-08-17T06:32:34.064Z,2812.00
2018-08-17T06:33:33.990Z,2836.00
2018-08-17T06:34:33.914Z,2860.00
2018-08-17T06:35:33.843Z,2888.00
2018-08-17T06:36:33.753Z,2904.00
2018-08-17T06:37:33.678Z,2932.00
2018-08-17T06:38:33.631Z,2960.00
2018-08-17T06:39:33.527Z,2992.00
2018-08-17T06:40:33.452Z,3020.00
2018-08-17T06:41:33.366Z,3052.00
2018-08-17T06:42:33.290Z,3096.00
2018-08-17T06:43:33.216Z,3132.00
2018-08-17T06:44:33.140Z,3148.00
2018-08-17T06:45:33.066Z,3156.00
2018-08-17T06:46:32.978Z,3216.00
2018-08-17T06:47:32.903Z,3212.00
2018-08-17T06:48:32.829Z,3224.00
2018-08-17T06:49:32.753Z,3228.00
2018-08-17T06:50:32.731Z,3228.00
2018-08-17T06:51:32.603Z,3252.00
2018-08-17T06:52:32.517Z,3232.00
2018-08-17T06:53:32.442Z,3280.00
2018-08-17T06:54:32.366Z,3316.00
2018-08-17T06:55:32.291Z,3376.00
2018-08-17T06:56:32.218Z,3408.00
2018-08-17T06:57:32.142Z,3548.00
2018-08-17T06:58:32.066Z,3596.00
2018-08-17T06:59:31.993Z,3644.00
2018-08-17T07:00:31.904Z,3712.00
2018-08-17T07:01:31.832Z,3796.00
2018-08-17T07:02:31.795Z,3856.00
2018-08-17T07:03:31.678Z,3912.00
2018-08-17T07:04:31.610Z,3932.00
2018-08-17T07:05:31.522Z,3964.00
2018-08-17T07:06:31.447Z,3992.00
2018-08-17T07:07:31.367Z,4060.00
2018-08-17T07:08:31.295Z,4124.00
2018-08-17T07:09:31.318Z,4260.00
2018-08-17T07:10:31.143Z,4328.00
2018-08-17T07:11:31.068Z,4364.00
2018-08-17T07:12:30.981Z,4504.00
2018-08-17T07:13:30.918Z,4480.00
2018-08-17T07:14:30.830Z,4468.00
2018-08-17T07:15:30.757Z,4548.00
2018-08-17T07:16:30.740Z,4572.00
2018-08-17T07:17:30.617Z,4612.00
2018-08-17T07:18:30.530Z,4732.00
2018-08-17T07:19:30.456Z,4784.00
2018-08-17T07:20:30.380Z,4752.00
2018-08-17T07:21:30.324Z,4716.00
2018-08-17T07:22:30.230Z,4732.00
2018-08-17T07:23:30.146Z,4852.00
2018-08-17T07:24:30.074Z,4964.00
2018-08-17T07:25:29.995Z,4968.00
2018-08-17T07:26:29.919Z,4992.00
2018-08-17T07:27:29.847Z,5060.00
2018-08-17T07:28:29.770Z,5232.00
2018-08-17T07:29:29.695Z,5636.00
2018-08-17T07:30:29.620Z,5612.00
2018-08-17T07:31:29.548Z,5576.00
2018-08-17T07:32:29.470Z,5468.00
2018-08-17T07:33:29.395Z,6368.00
2018-08-17T07:34:29.321Z,7716.00
2018-08-17T07:35:29.305Z,8096.00
2018-08-17T07:36:29.170Z,8068.00
2018-08-17T07:37:29.095Z,7584.00
2018-08-17T07:38:29.022Z,7884.00
2018-08-17T07:39:28.947Z,6776.00
2018-08-17T07:40:28.871Z,8152.00
2018-08-17T07:41:28.824Z,8268.00
2018-08-17T07:42:28.721Z,8392.00
2018-08-17T07:43:28.647Z,8380.00
2018-08-17T07:44:28.572Z,8292.00
2018-08-17T07:45:28.504Z,8204.00
2018-08-17T07:46:28.422Z,8012.00
2018-08-17T07:47:28.372Z,7704.00
2018-08-17T07:48:28.284Z,7524.00
2018-08-17T07:49:28.215Z,7364.00
2018-08-17T07:50:28.145Z,7316.00
2018-08-17T07:51:28.060Z,7296.00
2018-08-17T07:52:27.997Z,7280.00
2018-08-17T07:53:27.923Z,7276.00
2018-08-17T07:54:27.848Z,7272.00
2018-08-17T07:55:27.773Z,7264.00
2018-08-17T07:56:27.710Z,7256.00
2018-08-17T07:57:27.635Z,7260.00
2018-08-17T07:58:27.573Z,7292.00
2018-08-17T07:59:27.498Z,7308.00
2018-08-17T08:00:27.424Z,7336.00
2018-08-17T08:01:27.366Z,7360.00
2018-08-17T08:02:27.286Z,7368.00
2018-08-17T08:03:27.211Z,7388.00
2018-08-17T08:04:27.149Z,7400.00
2018-08-17T08:05:27.075Z,7396.00
2018-08-17T08:06:27.012Z,7384.00
2018-08-17T08:07:26.936Z,7400.00
2018-08-17T08:08:26.864Z,7444.00
2018-08-17T08:09:26.800Z,7476.00
2018-08-17T08:10:26.738Z,7444.00
2018-08-17T08:11:26.662Z,7420.00
2018-08-17T08:12:26.600Z,7520.00
2018-08-17T08:13:26.526Z,7596.00
2018-08-17T08:14:26.462Z,7656.00
2018-08-17T08:15:26.411Z,7708.00
2018-08-17T08:16:26.326Z,8276.00
2018-08-17T08:17:26.251Z,11768.00
2018-08-17T08:18:26.189Z,16008.00
2018-08-17T08:19:26.114Z,17344.00
2018-08-17T08:20:26.138Z,15928.00
2018-08-17T08:21:25.988Z,14288.00
2018-08-17T08:22:25.913Z,15608.00
2018-08-17T08:23:25.852Z,17312.00
2018-08-17T08:24:25.779Z,16664.00
2018-08-17T08:25:25.717Z,15272.00
2018-08-17T08:26:25.651Z,14696.00
2018-08-17T08:27:25.576Z,15072.00
2018-08-17T08:28:25.528Z,15160.00
2018-08-17T08:29:25.454Z,14728.00
2018-08-17T08:30:25.379Z,14040.00
2018-08-17T08:31:25.315Z,14920.00
2018-08-17T08:32:25.255Z,15324.00
2018-08-17T08:33:25.177Z,14216.00
2018-08-17T08:34:25.127Z,12740.00
2018-08-17T08:35:25.041Z,12200.00
2018-08-17T08:36:24.978Z,11956.00
2018-08-17T08:37:24.916Z,11384.00
2018-08-17T08:38:24.842Z,11096.00
2018-08-17T08:39:24.819Z,11496.00
2018-08-17T08:40:24.716Z,12232.00
2018-08-17T08:41:24.654Z,12456.00
2018-08-17T08:42:24.579Z,12172.00
2018-08-17T08:43:24.515Z,12096.00
2018-08-17T08:44:24.458Z,12252.00
2018-08-17T08:45:24.445Z,11732.00
2018-08-17T08:46:24.329Z,11908.00
2018-08-17T08:47:24.259Z,11084.00
2018-08-17T08:48:24.193Z,10044.00
2018-08-17T08:49:24.118Z,9112.00
2018-08-17T08:50:24.055Z,8600.00
2018-08-17T08:51:23.991Z,8508.00
2018-08-17T08:52:23.941Z,8468.00
2018-08-17T08:53:23.866Z,8484.00
2018-08-17T08:54:23.795Z,8436.00
2018-08-17T08:55:23.730Z,8532.00
2018-08-17T08:56:23.669Z,8480.00
2018-08-17T08:57:23.606Z,8592.00
2018-08-17T08:58:23.530Z,8604.00
2018-08-17T08:59:23.467Z,8924.00
2018-08-17T09:00:23.406Z,9044.00
2018-08-17T09:01:23.356Z,9392.00
2018-08-17T09:02:23.267Z,9612.00
2018-08-17T09:03:23.209Z,9688.00
2018-08-17T09:04:23.144Z,9820.00
2018-08-17T09:05:23.080Z,9788.00
2018-08-17T09:06:23.018Z,9852.00
2018-08-17T09:07:22.943Z,9860.00
2018-08-17T09:08:22.929Z,9924.00
2018-08-17T09:09:22.818Z,10072.00
2018-08-17T09:10:22.757Z,10248.00
2018-08-17T09:11:22.682Z,10220.00
2018-08-17T09:12:22.618Z,10364.00
2018-08-17T09:13:22.563Z,10604.00
2018-08-17T09:14:22.507Z,10620.00
2018-08-17T09:15:22.436Z,10784.00
2018-08-17T09:16:22.357Z,11064.00
2018-08-17T09:17:22.307Z,11120.00
2018-08-17T09:18:22.239Z,11260.00
2018-08-17T09:19:22.169Z,11256.00
2018-08-17T09:20:22.147Z,11356.00
2018-08-17T09:21:22.034Z,11340.00
2018-08-17T09:22:21.969Z,11384.00
2018-08-17T09:23:21.907Z,11768.00
2018-08-17T09:24:21.844Z,12016.00
2018-08-17T09:25:21.769Z,12284.00
2018-08-17T09:26:21.709Z,12400.00
2018-08-17T09:27:21.645Z,12504.00
2018-08-17T09:28:21.587Z,12828.00
2018-08-17T09:29:21.520Z,12984.00
2018-08-17T09:30:21.446Z,13408.00
2018-08-17T09:31:21.384Z,13604.00
2018-08-17T09:32:21.320Z,14188.00
2018-08-17T09:33:21.259Z,14688.00
2018-08-17T09:34:21.209Z,13584.00
2018-08-17T09:35:21.137Z,12624.00
2018-08-17T09:36:21.059Z,14932.00
2018-08-17T09:37:20.998Z,14568.00
2018-08-17T09:38:20.934Z,10264.00
2018-08-17T09:39:20.871Z,9788.00
2018-08-17T09:40:20.810Z,8888.00
2018-08-17T09:41:20.735Z,9032.00
2018-08-17T09:42:20.671Z,8460.00
2018-08-17T09:43:20.610Z,8516.00
2018-08-17T09:44:20.546Z,8556.00
2018-08-17T09:45:20.473Z,7912.00
2018-08-17T09:46:20.410Z,8588.00
2018-08-17T09:47:20.347Z,10916.00
2018-08-17T09:48:20.285Z,11200.00
2018-08-17T09:49:20.234Z,11168.00
2018-08-17T09:50:20.151Z,10368.00
2018-08-17T09:51:20.096Z,8176.00
2018-08-17T09:52:20.023Z,7300.00
2018-08-17T09:53:19.948Z,7284.00
2018-08-17T09:54:19.886Z,7216.00
2018-08-17T09:55:19.823Z,7140.00
2018-08-17T09:56:19.749Z,6932.00
2018-08-17T09:57:19.686Z,6972.00
2018-08-17T09:58:19.625Z,7112.00
2018-08-17T09:59:19.562Z,7244.00
2018-08-17T10:00:19.487Z,7208.00
2018-08-17T10:01:19.424Z,7232.00
2018-08-17T10:02:19.353Z,7232.00
2018-08-17T10:03:19.287Z,7128.00
2018-08-17T10:04:19.227Z,7136.00
2018-08-17T10:05:19.151Z,7140.00
2018-08-17T10:06:19.087Z,7180.00
2018-08-17T10:07:19.014Z,7184.00
2018-08-17T10:08:18.949Z,7152.00
2018-08-17T10:09:18.877Z,7236.00
2018-08-17T10:10:18.814Z,7388.00
2018-08-17T10:11:18.750Z,7388.00
2018-08-17T10:12:18.676Z,7140.00
2018-08-17T10:13:18.613Z,6728.00
2018-08-17T10:14:18.539Z,7012.00
2018-08-17T10:15:18.476Z,7420.00
2018-08-17T10:16:18.416Z,7540.00
2018-08-17T10:17:18.339Z,7760.00
2018-08-17T10:18:18.276Z,7968.00
2018-08-17T10:19:18.215Z,8108.00
2018-08-17T10:20:18.126Z,8232.00
2018-08-17T10:21:18.203Z,8320.00
2018-08-17T10:22:17.994Z,8460.00
2018-08-17T10:23:17.927Z,8436.00
2018-08-17T10:24:17.853Z,8312.00
2018-08-17T10:25:17.791Z,8324.00
2018-08-17T10:26:17.727Z,8088.00
2018-08-17T10:27:17.653Z,7800.00
2018-08-17T10:28:17.579Z,8136.00
2018-08-17T10:29:17.516Z,8052.00
2018-08-17T10:30:17.441Z,7696.00
2018-08-17T10:31:17.390Z,7616.00
2018-08-17T10:32:17.316Z,8108.00
2018-08-17T10:33:17.241Z,8524.00
2018-08-17T10:34:17.178Z,8628.00
2018-08-17T10:35:17.103Z,8868.00
2018-08-17T10:36:17.028Z,9204.00
2018-08-17T10:37:16.966Z,9360.00
2018-08-17T10:38:16.892Z,9436.00
2018-08-17T10:39:16.828Z,9452.00
2018-08-17T10:40:16.767Z,9440.00
2018-08-17T10:41:16.691Z,9296.00
2018-08-17T10:42:16.617Z,8648.00
2018-08-17T10:43:16.553Z,7828.00
2018-08-17T10:44:16.479Z,7928.00
2018-08-17T10:45:16.420Z,8476.00
2018-08-17T10:46:16.354Z,9200.00
2018-08-17T10:47:16.279Z,9536.00
2018-08-17T10:48:16.223Z,9588.00
2018-08-17T10:49:16.223Z,9600.00
2018-08-17T10:50:16.079Z,9820.00
2018-08-17T10:51:16.004Z,11976.00
2018-08-17T10:52:15.943Z,14452.00
2018-08-17T10:53:15.868Z,15312.00
2018-08-17T10:54:15.805Z,17856.00
2018-08-17T10:55:15.730Z,18336.00
2018-08-17T10:56:15.673Z,19808.00
2018-08-17T10:57:15.594Z,17440.00
2018-08-17T10:58:15.531Z,25056.00
2018-08-17T10:59:15.469Z,13288.00
2018-08-17T11:00:15.394Z,31136.00
2018-08-17T11:01:15.331Z,14112.00
2018-08-17T11:02:15.259Z,20384.00
2018-08-17T11:03:15.194Z,23904.00
2018-08-17T11:04:57.255Z,40416.00
2018-08-17T11:05:57.198Z,28928.00
2018-08-17T11:06:57.118Z,34624.00
2018-08-17T11:07:57.056Z,19712.00
2018-08-17T11:08:56.994Z,46752.00
2018-08-17T11:09:56.919Z,27808.00
2018-08-17T11:10:56.914Z,36736.00
2018-08-17T11:11:56.795Z,57536.00
2018-08-17T11:12:56.720Z,67712.00
2018-08-17T11:13:56.657Z,70784.00
2018-08-17T11:14:56.595Z,73568.00
2018-08-17T11:15:56.521Z,22400.00
2018-08-17T11:16:56.462Z,51328.00
2018-08-17T11:17:56.395Z,59488.00
2018-08-17T11:18:56.333Z,55872.00
2018-08-17T11:19:56.257Z,16424.00
2018-08-17T11:20:56.195Z,28544.00
2018-08-17T11:21:56.145Z,49888.00
2018-08-17T11:22:56.100Z,67168.00
2018-08-17T11:23:56.008Z,67040.00
2018-08-17T11:24:55.945Z,61824.00
2018-08-17T11:25:55.873Z,59872.00
2018-08-17T11:26:55.808Z,55232.00
2018-08-17T11:27:55.749Z,60448.00
2018-08-17T11:28:55.683Z,56992.00
2018-08-17T11:29:55.609Z,53088.00
2018-08-17T11:30:55.546Z,45504.00
2018-08-17T11:31:55.484Z,54112.00
2018-08-17T11:32:55.423Z,57760.00
2018-08-17T11:33:55.359Z,60192.00
2018-08-17T11:34:55.297Z,59104.00
2018-08-17T11:35:55.234Z,50336.00
2018-08-17T11:36:55.173Z,27232.00
2018-08-17T11:37:55.110Z,19424.00
2018-08-17T11:38:55.037Z,19008.00
2018-08-17T11:39:54.972Z,15948.00
2018-08-17T11:40:54.911Z,36960.00
2018-08-17T11:41:54.847Z,27040.00
2018-08-17T11:42:54.785Z,52576.00
2018-08-17T11:43:54.723Z,17272.00
2018-08-17T11:44:54.660Z,16980.00
2018-08-17T11:45:54.598Z,22592.00
2018-08-17T11:46:54.535Z,55648.00
2018-08-17T11:47:54.473Z,20128.00
2018-08-17T11:48:54.410Z,30464.00
2018-08-17T11:49:54.335Z,34272.00
2018-08-17T11:50:54.276Z,54304.00
2018-08-17T11:51:54.210Z,48608.00
2018-08-17T11:52:54.150Z,49152.00
2018-08-17T11:53:54.117Z,49152.00
2018-08-17T11:54:54.024Z,48608.00
2018-08-17T11:55:53.962Z,47808.00
2018-08-17T11:56:53.901Z,44800.00
2018-08-17T11:57:53.829Z,44736.00
2018-08-17T11:58:53.763Z,44640.00
2018-08-17T11:59:53.699Z,43584.00
2018-08-17T12:00:53.637Z,43296.00
2018-08-17T12:01:53.658Z,44256.00
2018-08-17T12:02:53.514Z,44192.00
2018-08-17T12:03:53.453Z,43424.00
2018-08-17T12:04:53.387Z,42144.00
2018-08-17T12:05:53.325Z,41600.00
2018-08-17T12:06:53.263Z,40032.00
2018-08-17T12:07:53.201Z,39104.00
2018-08-17T12:08:53.138Z,38112.00
2018-08-17T12:09:53.077Z,37824.00
2018-08-17T12:10:53.013Z,35840.00
2018-08-17T12:11:52.952Z,17824.00
2018-08-17T12:12:52.888Z,12400.00
2018-08-17T12:13:52.827Z,34016.00
2018-08-17T12:14:52.763Z,22336.00
2018-08-17T12:15:52.701Z,15832.00
2018-08-17T12:16:52.652Z,16636.00
2018-08-17T12:17:52.577Z,26560.00
2018-08-17T12:18:52.601Z,23008.00
2018-08-17T12:19:52.452Z,25952.00
2018-08-17T12:20:52.389Z,13920.00
2018-08-17T12:21:52.328Z,9028.00
2018-08-17T12:22:52.264Z,10332.00